SHT5R EGAC-EGLL
Flight info
| Callsign | SHT5R |
|---|---|
| Flight time | 0h 48m |
| Altitude | 33000 |
| Route | DUFFY L10 RINGA Q39 BABGU DCT ETIGA DCT INKOB Q39 NOMSU UQ4 WAL UY53 NUGRA |
| Aircraft | A20N/M-SDE2E3FGHIJ1RWXY/LB1 |
Departure
| Time | 2026-04-26 19:40 |
|---|---|
| Airport | George Best Belfast City Airport (EGAC) |
Arrival
| Time | 2026-04-26 20:28 |
|---|---|
| Airport | London Heathrow Airport (EGLL) |
| Time | Latitude | Longitude | Altitude | Speed | Heading |
|---|---|---|---|---|---|
| 2026-04-26 19:16 | 54.61462 | -5.87188 | 22 ft | 0 kts | 156° |
| 2026-04-26 19:34 | 54.61473 | -5.87197 | 21 ft | 3 kts | 155° |
| 2026-04-26 19:34 | 54.61491 | -5.87211 | 25 ft | 3 kts | 162° |
| 2026-04-26 19:34 | 54.61511 | -5.87219 | 22 ft | 3 kts | 179° |
| 2026-04-26 19:35 | 54.61530 | -5.87216 | 22 ft | 3 kts | 198° |
| 2026-04-26 19:35 | 54.61548 | -5.87202 | 24 ft | 2 kts | 214° |
| 2026-04-26 19:35 | 54.61556 | -5.87194 | 24 ft | 1 kts | 215° |
| 2026-04-26 19:35 | 54.61557 | -5.87192 | 24 ft | 0 kts | 215° |
| 2026-04-26 19:37 | 54.61513 | -5.87246 | 23 ft | 14 kts | 215° |
| 2026-04-26 19:38 | 54.61417 | -5.87365 | 21 ft | 19 kts | 221° |
| 2026-04-26 19:38 | 54.61313 | -5.87530 | 19 ft | 22 kts | 212° |
| 2026-04-26 19:38 | 54.61173 | -5.87693 | 18 ft | 26 kts | 214° |
| 2026-04-26 19:38 | 54.61088 | -5.87814 | 18 ft | 0 kts | 246° |
| 2026-04-26 19:39 | 54.61086 | -5.87829 | 18 ft | 7 kts | 255° |
| 2026-04-26 19:39 | 54.61151 | -5.88015 | 18 ft | 21 kts | 346° |
| 2026-04-26 19:39 | 54.61248 | -5.87925 | 16 ft | 31 kts | 34° |
| 2026-04-26 19:40 | 54.61670 | -5.87418 | 17 ft | 112 kts | 34° |
| 2026-04-26 19:40 | 54.62437 | -5.86480 | 370 ft | 140 kts | 36° |
| 2026-04-26 19:40 | 54.63275 | -5.85601 | 1172 ft | 145 kts | 26° |
| 2026-04-26 19:40 | 54.64180 | -5.84824 | 1940 ft | 150 kts | 25° |
| 2026-04-26 19:41 | 54.64822 | -5.84265 | 2442 ft | 155 kts | 25° |
| 2026-04-26 19:41 | 54.66121 | -5.83058 | 3436 ft | 164 kts | 36° |
| 2026-04-26 19:41 | 54.66720 | -5.81412 | 4179 ft | 168 kts | 79° |
| 2026-04-26 19:41 | 54.66757 | -5.80726 | 4346 ft | 174 kts | 94° |
| 2026-04-26 19:42 | 54.65956 | -5.78224 | 4929 ft | 196 kts | 147° |
| 2026-04-26 19:42 | 54.64691 | -5.77114 | 5385 ft | 213 kts | 163° |
| 2026-04-26 19:42 | 54.63218 | -5.76233 | 5770 ft | 236 kts | 164° |
| 2026-04-26 19:42 | 54.61608 | -5.75204 | 6264 ft | 258 kts | 161° |
| 2026-04-26 19:43 | 54.59888 | -5.73937 | 6874 ft | 275 kts | 158° |
| 2026-04-26 19:43 | 54.58134 | -5.72517 | 7720 ft | 281 kts | 157° |
| 2026-04-26 19:43 | 54.56379 | -5.71046 | 8587 ft | 286 kts | 156° |
| 2026-04-26 19:43 | 54.54574 | -5.69515 | 9456 ft | 291 kts | 156° |
| 2026-04-26 19:44 | 54.52739 | -5.67961 | 10339 ft | 296 kts | 156° |
| 2026-04-26 19:44 | 54.50840 | -5.66359 | 10863 ft | 313 kts | 156° |
| 2026-04-26 19:44 | 54.48809 | -5.64654 | 11149 ft | 336 kts | 156° |
| 2026-04-26 19:44 | 54.46649 | -5.62845 | 11697 ft | 348 kts | 156° |
| 2026-04-26 19:45 | 54.44489 | -5.61034 | 12493 ft | 352 kts | 156° |
| 2026-04-26 19:45 | 54.42271 | -5.59169 | 13308 ft | 356 kts | 154° |
| 2026-04-26 19:45 | 54.40190 | -5.56826 | 14088 ft | 362 kts | 141° |
| 2026-04-26 19:45 | 54.38426 | -5.53705 | 14773 ft | 368 kts | 128° |
| 2026-04-26 19:46 | 54.36953 | -5.50081 | 15443 ft | 373 kts | 125° |
| 2026-04-26 19:46 | 54.35474 | -5.46385 | 16115 ft | 377 kts | 125° |
| 2026-04-26 19:46 | 54.33972 | -5.42659 | 16793 ft | 381 kts | 126° |
| 2026-04-26 19:46 | 54.32463 | -5.38936 | 17448 ft | 386 kts | 126° |
| 2026-04-26 19:47 | 54.30921 | -5.35145 | 18112 ft | 390 kts | 126° |
| 2026-04-26 19:47 | 54.29866 | -5.32556 | 18548 ft | 393 kts | 126° |
| 2026-04-26 19:47 | 54.27774 | -5.27460 | 19346 ft | 396 kts | 127° |
| 2026-04-26 19:47 | 54.26029 | -5.23765 | 19959 ft | 399 kts | 130° |
| 2026-04-26 19:48 | 54.24260 | -5.20089 | 20547 ft | 402 kts | 130° |
| 2026-04-26 19:48 | 54.22477 | -5.16382 | 21131 ft | 405 kts | 130° |
| 2026-04-26 19:48 | 54.20684 | -5.12652 | 21708 ft | 408 kts | 130° |
| 2026-04-26 19:48 | 54.18874 | -5.08895 | 22274 ft | 411 kts | 130° |
| 2026-04-26 19:49 | 54.17052 | -5.05117 | 22843 ft | 414 kts | 130° |
| 2026-04-26 19:49 | 54.15206 | -5.01295 | 23411 ft | 417 kts | 130° |
| 2026-04-26 19:49 | 54.13358 | -4.97475 | 23941 ft | 421 kts | 130° |
| 2026-04-26 19:49 | 54.11511 | -4.93662 | 24418 ft | 423 kts | 130° |
| 2026-04-26 19:50 | 54.09625 | -4.89775 | 24884 ft | 426 kts | 131° |
| 2026-04-26 19:50 | 54.07729 | -4.85873 | 25342 ft | 428 kts | 131° |
| 2026-04-26 19:50 | 54.05823 | -4.81955 | 25794 ft | 431 kts | 131° |
| 2026-04-26 19:50 | 54.03901 | -4.78007 | 26235 ft | 433 kts | 131° |
| 2026-04-26 19:51 | 54.02038 | -4.73951 | 26666 ft | 436 kts | 129° |
| 2026-04-26 19:51 | 54.00219 | -4.69806 | 27084 ft | 439 kts | 129° |
| 2026-04-26 19:51 | 53.98389 | -4.65618 | 27492 ft | 441 kts | 129° |
| 2026-04-26 19:51 | 53.96569 | -4.61485 | 27900 ft | 443 kts | 129° |
| 2026-04-26 19:52 | 53.94685 | -4.57244 | 28293 ft | 445 kts | 130° |
| 2026-04-26 19:52 | 53.92807 | -4.53041 | 28677 ft | 447 kts | 130° |
| 2026-04-26 19:52 | 53.90935 | -4.48867 | 29063 ft | 449 kts | 130° |
| 2026-04-26 19:52 | 53.89037 | -4.44649 | 29428 ft | 451 kts | 130° |
| 2026-04-26 19:53 | 53.87127 | -4.40410 | 29779 ft | 453 kts | 130° |
| 2026-04-26 19:53 | 53.85249 | -4.36074 | 30128 ft | 456 kts | 128° |
| 2026-04-26 19:53 | 53.83448 | -4.31632 | 30452 ft | 458 kts | 127° |
| 2026-04-26 19:53 | 53.81674 | -4.27198 | 30746 ft | 460 kts | 127° |
| 2026-04-26 19:54 | 53.79866 | -4.22707 | 31045 ft | 462 kts | 128° |
| 2026-04-26 19:54 | 53.78038 | -4.18212 | 31346 ft | 464 kts | 128° |
| 2026-04-26 19:54 | 53.76200 | -4.13722 | 31698 ft | 464 kts | 128° |
| 2026-04-26 19:54 | 53.74356 | -4.09239 | 32083 ft | 463 kts | 128° |
| 2026-04-26 19:55 | 53.72517 | -4.04781 | 32481 ft | 462 kts | 129° |
| 2026-04-26 19:55 | 53.70675 | -4.00326 | 32831 ft | 461 kts | 129° |
| 2026-04-26 19:55 | 53.68854 | -3.95930 | 33169 ft | 461 kts | 129° |
| 2026-04-26 19:55 | 53.67011 | -3.91488 | 33279 ft | 460 kts | 129° |
| 2026-04-26 19:56 | 53.63334 | -3.82661 | 33284 ft | 459 kts | 129° |
| 2026-04-26 19:56 | 53.59681 | -3.73923 | 33286 ft | 459 kts | 129° |
| 2026-04-26 19:57 | 53.55996 | -3.65136 | 33288 ft | 459 kts | 130° |
| 2026-04-26 19:57 | 53.52305 | -3.56365 | 33282 ft | 459 kts | 130° |
| 2026-04-26 19:58 | 53.48612 | -3.47618 | 33292 ft | 458 kts | 130° |
| 2026-04-26 19:58 | 53.45499 | -3.38274 | 33287 ft | 466 kts | 117° |
| 2026-04-26 19:59 | 53.42971 | -3.28224 | 33275 ft | 466 kts | 117° |
| 2026-04-26 19:59 | 53.40422 | -3.18218 | 33284 ft | 466 kts | 118° |
| 2026-04-26 20:00 | 53.37239 | -3.08958 | 33279 ft | 458 kts | 131° |
| 2026-04-26 20:00 | 53.33411 | -3.00417 | 33284 ft | 458 kts | 131° |
| 2026-04-26 20:01 | 53.29597 | -2.91879 | 33286 ft | 459 kts | 132° |
| 2026-04-26 20:01 | 53.25775 | -2.83339 | 33285 ft | 459 kts | 132° |
| 2026-04-26 20:02 | 53.21929 | -2.74781 | 33286 ft | 460 kts | 132° |
| 2026-04-26 20:02 | 53.18722 | -2.67666 | 33289 ft | 462 kts | 132° |
| 2026-04-26 20:03 | 53.14222 | -2.57731 | 33293 ft | 462 kts | 132° |
| 2026-04-26 20:03 | 53.10476 | -2.48974 | 33291 ft | 466 kts | 129° |
| 2026-04-26 20:04 | 53.06875 | -2.39990 | 33291 ft | 466 kts | 129° |
| 2026-04-26 20:04 | 53.02921 | -2.31533 | 33291 ft | 459 kts | 140° |
| 2026-04-26 20:05 | 52.97958 | -2.25074 | 33289 ft | 449 kts | 154° |
| 2026-04-26 20:05 | 52.92689 | -2.19598 | 33295 ft | 450 kts | 153° |
| 2026-04-26 20:06 | 52.87389 | -2.14060 | 33296 ft | 450 kts | 153° |
| 2026-04-26 20:06 | 52.82082 | -2.08525 | 33291 ft | 450 kts | 153° |
| 2026-04-26 20:07 | 52.79430 | -2.05765 | 33146 ft | 450 kts | 153° |
| 2026-04-26 20:07 | 52.76784 | -2.03015 | 32878 ft | 450 kts | 153° |
| 2026-04-26 20:07 | 52.74130 | -2.00263 | 32600 ft | 450 kts | 153° |
| 2026-04-26 20:07 | 52.71470 | -1.97511 | 31977 ft | 453 kts | 153° |
| 2026-04-26 20:08 | 52.68785 | -1.94738 | 31110 ft | 458 kts | 152° |
| 2026-04-26 20:08 | 52.66090 | -1.91958 | 30437 ft | 456 kts | 152° |
| 2026-04-26 20:08 | 52.63421 | -1.89202 | 29922 ft | 449 kts | 152° |
| 2026-04-26 20:08 | 52.60801 | -1.86499 | 29460 ft | 440 kts | 152° |
| 2026-04-26 20:09 | 52.58222 | -1.83843 | 28942 ft | 434 kts | 152° |
| 2026-04-26 20:09 | 52.55682 | -1.81234 | 28386 ft | 429 kts | 152° |
| 2026-04-26 20:09 | 52.53160 | -1.78650 | 27847 ft | 424 kts | 152° |
| 2026-04-26 20:09 | 52.50670 | -1.76102 | 27300 ft | 420 kts | 152° |
| 2026-04-26 20:10 | 52.48200 | -1.73576 | 26761 ft | 416 kts | 152° |
| 2026-04-26 20:10 | 52.45753 | -1.71078 | 26224 ft | 413 kts | 152° |
| 2026-04-26 20:10 | 52.43320 | -1.68596 | 25682 ft | 410 kts | 152° |
| 2026-04-26 20:10 | 52.40906 | -1.66139 | 25148 ft | 407 kts | 152° |
| 2026-04-26 20:11 | 52.38507 | -1.63698 | 24603 ft | 405 kts | 152° |
| 2026-04-26 20:11 | 52.36113 | -1.61267 | 24018 ft | 404 kts | 152° |
| 2026-04-26 20:11 | 52.33762 | -1.58881 | 23480 ft | 401 kts | 152° |
| 2026-04-26 20:12 | 52.29065 | -1.54124 | 22408 ft | 393 kts | 152° |
| 2026-04-26 20:12 | 52.26750 | -1.51784 | 21872 ft | 389 kts | 151° |
| 2026-04-26 20:12 | 52.24452 | -1.49464 | 21330 ft | 387 kts | 151° |
| 2026-04-26 20:12 | 52.22183 | -1.47149 | 20807 ft | 385 kts | 149° |
| 2026-04-26 20:13 | 52.20066 | -1.44471 | 20263 ft | 385 kts | 142° |
| 2026-04-26 20:13 | 52.18049 | -1.41632 | 19882 ft | 385 kts | 142° |
| 2026-04-26 20:13 | 52.15980 | -1.38729 | 19491 ft | 397 kts | 142° |
| 2026-04-26 20:13 | 52.13894 | -1.35810 | 19092 ft | 394 kts | 142° |
| 2026-04-26 20:14 | 52.11832 | -1.32929 | 18691 ft | 387 kts | 142° |
| 2026-04-26 20:14 | 52.09791 | -1.30085 | 18267 ft | 385 kts | 142° |
| 2026-04-26 20:14 | 52.07754 | -1.27253 | 17874 ft | 384 kts | 142° |
| 2026-04-26 20:14 | 52.05730 | -1.24445 | 17488 ft | 382 kts | 142° |
| 2026-04-26 20:15 | 52.03717 | -1.21652 | 17107 ft | 378 kts | 142° |
| 2026-04-26 20:15 | 52.01750 | -1.18929 | 16712 ft | 375 kts | 142° |
| 2026-04-26 20:15 | 51.99764 | -1.16182 | 16329 ft | 373 kts | 142° |
| 2026-04-26 20:15 | 51.97793 | -1.13460 | 15961 ft | 370 kts | 142° |
| 2026-04-26 20:16 | 51.95862 | -1.10793 | 15823 ft | 357 kts | 142° |
| 2026-04-26 20:16 | 51.94003 | -1.08226 | 15692 ft | 344 kts | 142° |
| 2026-04-26 20:16 | 51.92216 | -1.05760 | 15540 ft | 328 kts | 142° |
| 2026-04-26 20:16 | 51.90519 | -1.03419 | 15258 ft | 314 kts | 142° |
| 2026-04-26 20:17 | 51.88833 | -1.01105 | 14393 ft | 322 kts | 143° |
| 2026-04-26 20:17 | 51.87122 | -0.98764 | 13469 ft | 329 kts | 142° |
| 2026-04-26 20:17 | 51.85528 | -0.96123 | 13125 ft | 324 kts | 130° |
| 2026-04-26 20:17 | 51.84688 | -0.94161 | 13010 ft | 315 kts | 122° |
| 2026-04-26 20:18 | 51.83415 | -0.90071 | 12790 ft | 293 kts | 118° |
| 2026-04-26 20:18 | 51.82539 | -0.87184 | 12531 ft | 280 kts | 118° |
| 2026-04-26 20:18 | 51.81688 | -0.84416 | 12054 ft | 276 kts | 118° |
| 2026-04-26 20:18 | 51.80835 | -0.81645 | 11556 ft | 274 kts | 118° |
| 2026-04-26 20:19 | 51.79988 | -0.78896 | 11052 ft | 272 kts | 118° |
| 2026-04-26 20:19 | 51.78942 | -0.76384 | 10608 ft | 272 kts | 140° |
| 2026-04-26 20:19 | 51.77221 | -0.74796 | 10187 ft | 294 kts | 166° |
| 2026-04-26 20:19 | 51.75185 | -0.74420 | 9711 ft | 295 kts | 180° |
| 2026-04-26 20:20 | 51.73151 | -0.74382 | 9245 ft | 295 kts | 183° |
| 2026-04-26 20:20 | 51.71112 | -0.74716 | 8780 ft | 294 kts | 190° |
| 2026-04-26 20:20 | 51.69091 | -0.75246 | 8323 ft | 294 kts | 191° |
| 2026-04-26 20:20 | 51.67747 | -0.75605 | 8019 ft | 294 kts | 191° |
| 2026-04-26 20:21 | 51.65737 | -0.76150 | 7573 ft | 294 kts | 191° |
| 2026-04-26 20:21 | 51.63748 | -0.76896 | 7130 ft | 293 kts | 199° |
| 2026-04-26 20:21 | 51.61202 | -0.78362 | 6541 ft | 293 kts | 200° |
| 2026-04-26 20:21 | 51.59910 | -0.79128 | 6231 ft | 292 kts | 200° |
| 2026-04-26 20:22 | 51.58026 | -0.80254 | 5726 ft | 291 kts | 200° |
| 2026-04-26 20:22 | 51.56142 | -0.81395 | 5143 ft | 288 kts | 200° |
| 2026-04-26 20:22 | 51.54265 | -0.82458 | 4554 ft | 284 kts | 191° |
| 2026-04-26 20:22 | 51.52332 | -0.82413 | 4126 ft | 273 kts | 163° |
| 2026-04-26 20:23 | 51.50746 | -0.81007 | 3992 ft | 251 kts | 134° |
| 2026-04-26 20:23 | 51.49709 | -0.78924 | 3987 ft | 228 kts | 126° |
| 2026-04-26 20:23 | 51.48825 | -0.77001 | 3885 ft | 201 kts | 126° |
| 2026-04-26 20:23 | 51.48126 | -0.75198 | 3625 ft | 185 kts | 113° |
| 2026-04-26 20:24 | 51.47788 | -0.73257 | 3241 ft | 177 kts | 98° |
| 2026-04-26 20:24 | 51.47691 | -0.71379 | 2978 ft | 160 kts | 92° |
| 2026-04-26 20:24 | 51.47676 | -0.69628 | 2747 ft | 161 kts | 90° |
| 2026-04-26 20:24 | 51.47680 | -0.67824 | 2506 ft | 161 kts | 90° |
| 2026-04-26 20:25 | 51.47686 | -0.66034 | 2275 ft | 160 kts | 90° |
| 2026-04-26 20:25 | 51.47690 | -0.64856 | 2139 ft | 158 kts | 90° |
| 2026-04-26 20:25 | 51.47698 | -0.62533 | 1847 ft | 157 kts | 90° |
| 2026-04-26 20:25 | 51.47704 | -0.60785 | 1630 ft | 150 kts | 90° |
| 2026-04-26 20:26 | 51.47710 | -0.59200 | 1436 ft | 135 kts | 90° |
| 2026-04-26 20:26 | 51.47715 | -0.57752 | 1259 ft | 128 kts | 90° |
| 2026-04-26 20:26 | 51.47720 | -0.56318 | 1087 ft | 129 kts | 90° |
| 2026-04-26 20:26 | 51.47725 | -0.54893 | 865 ft | 127 kts | 90° |
| 2026-04-26 20:27 | 51.47726 | -0.53489 | 732 ft | 128 kts | 90° |
| 2026-04-26 20:27 | 51.47741 | -0.52075 | 560 ft | 126 kts | 90° |
| 2026-04-26 20:27 | 51.47740 | -0.50653 | 396 ft | 128 kts | 90° |
| 2026-04-26 20:27 | 51.47752 | -0.49242 | 223 ft | 125 kts | 90° |
| 2026-04-26 20:28 | 51.47752 | -0.47863 | 99 ft | 122 kts | 91° |
| 2026-04-26 20:28 | 51.47754 | -0.46674 | 89 ft | 81 kts | 89° |
| 2026-04-26 20:28 | 51.47758 | -0.46096 | 89 ft | 33 kts | 89° |
| 2026-04-26 20:28 | 51.47758 | -0.45724 | 87 ft | 34 kts | 91° |
| 2026-04-26 20:29 | 51.47673 | -0.45474 | 90 ft | 18 kts | 182° |
| 2026-04-26 20:29 | 51.47637 | -0.45473 | 90 ft | 0 kts | 181° |
| 2026-04-26 20:29 | 51.47593 | -0.45556 | 89 ft | 17 kts | 270° |
| 2026-04-26 20:29 | 51.47594 | -0.45767 | 90 ft | 21 kts | 270° |
| 2026-04-26 20:30 | 51.47593 | -0.46010 | 86 ft | 23 kts | 269° |
| 2026-04-26 20:30 | 51.47591 | -0.46288 | 86 ft | 26 kts | 269° |
| 2026-04-26 20:30 | 51.47589 | -0.46586 | 87 ft | 28 kts | 270° |
| 2026-04-26 20:30 | 51.47583 | -0.46907 | 90 ft | 29 kts | 270° |
| 2026-04-26 20:31 | 51.47583 | -0.47238 | 88 ft | 31 kts | 269° |
| 2026-04-26 20:31 | 51.47579 | -0.47589 | 88 ft | 32 kts | 268° |
| 2026-04-26 20:31 | 51.47579 | -0.47949 | 90 ft | 31 kts | 269° |
| 2026-04-26 20:31 | 51.47578 | -0.48010 | 87 ft | 4 kts | 269° |
| 2026-04-26 20:32 | 51.47577 | -0.48240 | 87 ft | 30 kts | 269° |
| 2026-04-26 20:32 | 51.47534 | -0.48487 | 89 ft | 16 kts | 199° |
| 2026-04-26 20:32 | 51.47485 | -0.48540 | 90 ft | 5 kts | 284° |
| 2026-04-26 20:32 | 51.47494 | -0.48613 | 87 ft | 6 kts | 268° |
| 2026-04-26 20:33 | 51.47490 | -0.48697 | 86 ft | 9 kts | 266° |
| 2026-04-26 20:33 | 51.47485 | -0.48821 | 89 ft | 11 kts | 257° |
| 2026-04-26 20:33 | 51.47439 | -0.48833 | 87 ft | 8 kts | 179° |
| 2026-04-26 20:33 | 51.47408 | -0.48832 | 86 ft | 3 kts | 179° |
| 2026-04-26 20:34 | 51.47402 | -0.48832 | 86 ft | 0 kts | 179° |